Time;durP1;ratioP1;P1;durP2;ratioP2;P2;SDS_P1;SDS_P2;PMS_P1;PMS_P2;Temp;Humidity;BMP_temperature;BMP_pressure;BME280_temperature;BME280_humidity;BME280_pressure;Samples;Min_cycle;Max_cycle;Signal;HPM_P1;HPM_P2
2022/11/10 00:01:02;;;;;;;50.08;30.52;;;;;;;;;;2140869;27;20042;-43
2022/11/10 00:02:03;;;;;;;49.03;29.90;;;;;;;;;;2140945;27;20038;-43
2022/11/10 00:03:05;;;;;;;56.53;31.80;;;;;;;;;;2141094;27;20371;-43
2022/11/10 00:04:07;;;;;;;51.05;30.08;;;;;;;;;;2140718;27;20538;-43
2022/11/10 00:05:08;;;;;;;55.13;30.35;;;;;;;;;;2141112;27;20045;-43
2022/11/10 00:06:09;;;;;;;50.45;27.80;;;;;;;;;;2140094;27;20478;-42
2022/11/10 00:07:11;;;;;;;51.05;29.77;;;;;;;;;;2132239;27;20054;-42
2022/11/10 00:08:12;;;;;;;46.83;27.98;;;;;;;;;;2132098;27;20447;-42
2022/11/10 00:09:13;;;;;;;52.00;29.40;;;;;;;;;;2132248;27;20067;-43
2022/11/10 00:10:14;;;;;;;49.92;30.83;;;;;;;;;;2132013;27;20502;-43
2022/11/10 00:11:15;;;;;;;50.40;30.17;;;;;;;;;;2132112;27;20089;-43
2022/11/10 00:12:16;;;;;;;53.93;31.87;;;;;;;;;;2132075;27;20046;-43
2022/11/10 00:13:17;;;;;;;57.13;32.70;;;;;;;;;;2131993;27;20069;-43
2022/11/10 00:17:03;;;;;;;49.53;30.45;;;;;;;;;;2097136;28;20528;-42
2022/11/10 00:18:04;;;;;;;57.10;31.95;;;;;;;;;;2097157;28;20045;-42
2022/11/10 00:19:05;;;;;;;54.97;31.60;;;;;;;;;;2125899;27;20129;-42
2022/11/10 00:20:07;;;;;;;54.85;31.88;;;;;;;;;;2132113;27;20042;-41
2022/11/10 00:21:09;;;;;;;63.10;34.45;;;;;;;;;;2132073;27;20494;-42
2022/11/10 00:22:10;;;;;;;57.15;32.55;;;;;;;;;;2132007;27;20045;-43
2022/11/10 00:23:12;;;;;;;56.17;32.95;;;;;;;;;;2131980;27;20081;-41
2022/11/10 00:24:13;;;;;;;56.40;31.80;;;;;;;;;;2132136;27;20039;-42
2022/11/10 00:25:14;;;;;;;55.20;31.00;;;;;;;;;;2131831;27;20514;-42
2022/11/10 00:26:15;;;;;;;50.97;29.63;;;;;;;;;;2132188;27;20049;-46
2022/11/10 00:27:17;;;;;;;51.67;31.63;;;;;;;;;;2132002;27;20043;-44
2022/11/10 00:28:17;;;;;;;57.47;32.63;;;;;;;;;;2131949;27;20438;-45
2022/11/10 00:29:19;;;;;;;47.85;30.17;;;;;;;;;;2132017;27;20042;-46
2022/11/10 00:30:20;;;;;;;52.45;29.33;;;;;;;;;;2131909;27;20099;-47
2022/11/10 00:31:21;;;;;;;50.92;31.20;;;;;;;;;;2132001;27;20050;-46
2022/11/10 00:32:22;;;;;;;54.63;31.88;;;;;;;;;;2131962;27;20122;-46
2022/11/10 00:33:23;;;;;;;55.00;31.13;;;;;;;;;;2131912;27;20084;-46
2022/11/10 00:34:24;;;;;;;55.55;32.05;;;;;;;;;;2132098;27;20050;-49
2022/11/10 00:35:25;;;;;;;59.87;33.80;;;;;;;;;;2131837;27;20483;-46
2022/11/10 00:36:26;;;;;;;55.38;32.40;;;;;;;;;;2132089;27;20039;-46
2022/11/10 00:37:28;;;;;;;52.63;28.67;;;;;;;;;;2131943;27;20047;-45
2022/11/10 00:38:29;;;;;;;56.83;31.48;;;;;;;;;;2132112;27;20042;-42
2022/11/10 00:39:30;;;;;;;53.95;30.85;;;;;;;;;;2132306;27;20053;-45
2022/11/10 00:40:31;;;;;;;50.85;30.25;;;;;;;;;;2131954;27;20051;-45
2022/11/10 00:41:32;;;;;;;50.38;28.98;;;;;;;;;;2131947;27;20069;-45
2022/11/10 00:42:33;;;;;;;44.88;27.15;;;;;;;;;;2132012;27;20043;-46
2022/11/10 00:43:34;;;;;;;48.00;28.10;;;;;;;;;;2131991;27;20095;-45
2022/11/10 00:44:35;;;;;;;56.03;30.38;;;;;;;;;;2132069;27;20039;-45
2022/11/10 00:45:39;;;;;;;47.83;27.67;;;;;;;;;;2131965;27;20043;-45
2022/11/10 00:46:40;;;;;;;53.08;30.00;;;;;;;;;;2131772;27;20047;-45
2022/11/10 00:47:41;;;;;;;51.50;30.27;;;;;;;;;;2132188;27;20057;-42
2022/11/10 00:48:42;;;;;;;45.47;28.20;;;;;;;;;;2131885;27;20054;-42
2022/11/10 00:49:43;;;;;;;52.53;32.22;;;;;;;;;;2131981;27;20416;-42
2022/11/10 00:50:45;;;;;;;51.08;29.85;;;;;;;;;;2131879;27;20403;-42
2022/11/10 00:51:46;;;;;;;55.97;30.88;;;;;;;;;;2131918;27;20053;-46
2022/11/10 00:52:47;;;;;;;53.20;30.40;;;;;;;;;;2131909;27;20069;-48
2022/11/10 00:53:49;;;;;;;51.40;30.13;;;;;;;;;;2131797;27;20038;-45
2022/11/10 00:54:50;;;;;;;56.20;32.47;;;;;;;;;;2131846;27;20486;-45
2022/11/10 00:55:51;;;;;;;51.25;29.27;;;;;;;;;;2131729;27;20046;-46
2022/11/10 00:56:52;;;;;;;50.22;29.90;;;;;;;;;;2132117;27;20047;-46
2022/11/10 00:57:53;;;;;;;49.05;29.38;;;;;;;;;;2131772;27;20459;-46
2022/11/10 00:58:54;;;;;;;51.83;29.98;;;;;;;;;;2132150;27;20046;-46
2022/11/10 00:59:55;;;;;;;49.53;30.10;;;;;;;;;;2132020;27;20043;-42
2022/11/10 01:00:59;;;;;;;49.67;29.25;;;;;;;;;;2131789;27;20051;-42
2022/11/10 01:02:01;;;;;;;49.72;28.75;;;;;;;;;;2131838;27;20407;-42
2022/11/10 01:03:02;;;;;;;55.00;31.35;;;;;;;;;;2131616;27;20042;-45
2022/11/10 01:04:03;;;;;;;56.35;31.95;;;;;;;;;;2131664;27;20043;-45
2022/11/10 01:05:05;;;;;;;58.88;33.08;;;;;;;;;;2131856;27;20039;-45
2022/11/10 01:06:07;;;;;;;59.42;30.77;;;;;;;;;;2131720;27;20050;-47
2022/11/10 01:07:07;;;;;;;;;;;;;;;;;;2132128;27;20046;-45
2022/11/10 01:08:09;;;;;;;47.95;28.92;;;;;;;;;;2131800;27;19919;-46
2022/11/10 01:09:10;;;;;;;50.65;29.77;;;;;;;;;;2131710;27;20503;-45
2022/11/10 01:10:11;;;;;;;52.07;31.80;;;;;;;;;;2131723;27;20053;-45
2022/11/10 01:11:14;;;;;;;50.65;29.55;;;;;;;;;;2131758;27;20192;-44
2022/11/10 01:12:15;;;;;;;55.90;29.98;;;;;;;;;;2131606;27;20043;-48
2022/11/10 01:13:16;;;;;;;51.67;29.13;;;;;;;;;;2131750;27;20046;-45
2022/11/10 01:14:17;;;;;;;53.22;31.08;;;;;;;;;;2131748;27;20050;-45
2022/11/10 01:15:19;;;;;;;44.67;23.50;;;;;;;;;;2131784;27;20388;-42
2022/11/10 01:16:28;;;;;;;50.95;30.23;;;;;;;;;;2131628;27;20051;-42
2022/11/10 01:17:29;;;;;;;49.85;29.13;;;;;;;;;;2131728;27;20051;-41
2022/11/10 01:18:30;;;;;;;53.53;29.63;;;;;;;;;;2131814;27;20069;-41
2022/11/10 01:19:32;;;;;;;50.13;30.25;;;;;;;;;;2131809;27;20201;-42
2022/11/10 01:20:34;;;;;;;51.08;29.33;;;;;;;;;;2131541;27;20039;-42
2022/11/10 01:21:35;;;;;;;51.53;29.30;;;;;;;;;;2131607;27;20099;-42
2022/11/10 01:22:36;;;;;;;52.55;29.63;;;;;;;;;;2131860;27;20051;-42
2022/11/10 01:23:37;;;;;;;45.45;28.23;;;;;;;;;;2132111;27;20043;-42
2022/11/10 01:24:39;;;;;;;51.53;28.25;;;;;;;;;;2138910;27;20359;-42
2022/11/10 01:25:39;;;;;;;53.53;30.52;;;;;;;;;;2133162;27;20522;-46
2022/11/10 01:26:41;;;;;;;51.63;28.90;;;;;;;;;;2131555;27;20054;-45
2022/11/10 01:27:41;;;;;;;52.22;29.52;;;;;;;;;;2131657;27;20046;-47
2022/11/10 01:28:43;;;;;;;55.22;29.52;;;;;;;;;;2131769;27;20046;-41
2022/11/10 01:29:44;;;;;;;47.55;28.58;;;;;;;;;;2131714;27;20047;-42
2022/11/10 01:30:45;;;;;;;51.10;30.08;;;;;;;;;;2131614;27;20042;-41
2022/11/10 01:31:46;;;;;;;49.72;28.88;;;;;;;;;;2131589;27;20084;-41
2022/11/10 01:32:47;;;;;;;51.45;28.42;;;;;;;;;;2131596;27;20054;-41
2022/11/10 01:33:48;;;;;;;50.72;28.60;;;;;;;;;;2131750;27;20414;-42
2022/11/10 01:34:49;;;;;;;52.17;29.92;;;;;;;;;;2131670;27;20062;-42
2022/11/10 01:35:50;;;;;;;50.30;29.58;;;;;;;;;;2131430;27;20395;-42
2022/11/10 01:36:52;;;;;;;53.60;29.20;;;;;;;;;;2131857;27;20081;-41
2022/11/10 01:37:53;;;;;;;48.10;28.48;;;;;;;;;;2131590;27;20050;-41
2022/11/10 01:38:55;;;;;;;49.17;29.20;;;;;;;;;;2131452;27;20494;-42
2022/11/10 01:39:56;;;;;;;51.25;29.80;;;;;;;;;;2131677;27;20107;-41
2022/11/10 01:40:57;;;;;;;50.10;29.77;;;;;;;;;;2131440;27;20050;-41
2022/11/10 01:41:58;;;;;;;49.30;28.60;;;;;;;;;;2131496;27;20047;-42
2022/11/10 01:42:59;;;;;;;52.23;30.53;;;;;;;;;;2131507;27;20046;-41
2022/11/10 01:44:11;;;;;;;52.78;29.58;;;;;;;;;;2131669;27;20054;-41
2022/11/10 01:45:31;;;;;;;50.60;29.40;;;;;;;;;;2131412;27;20046;-42
2022/11/10 01:46:32;;;;;;;51.20;29.58;;;;;;;;;;2131411;27;20418;-41
2022/11/10 01:47:33;;;;;;;49.27;29.27;;;;;;;;;;2131950;27;20173;-42
2022/11/10 01:48:35;;;;;;;51.70;29.00;;;;;;;;;;2131431;27;20043;-41
2022/11/10 01:49:36;;;;;;;49.50;29.50;;;;;;;;;;2131646;27;20095;-41
2022/11/10 01:50:38;;;;;;;54.58;29.75;;;;;;;;;;2131468;27;20086;-41
2022/11/10 01:51:41;;;;;;;51.95;29.35;;;;;;;;;;2131519;27;20050;-41
2022/11/10 01:52:42;;;;;;;51.47;30.38;;;;;;;;;;2131345;27;20050;-41
2022/11/10 01:53:45;;;;;;;54.95;30.38;;;;;;;;;;2131507;27;20043;-41
2022/11/10 01:54:47;;;;;;;51.10;30.88;;;;;;;;;;2131409;27;20482;-41
2022/11/10 01:55:49;;;;;;;;;;;;;;;;;;2131930;27;20043;-41
2022/11/10 01:56:51;;;;;;;53.92;30.00;;;;;;;;;;2131407;27;20005;-41
2022/11/10 01:57:52;;;;;;;49.35;28.02;;;;;;;;;;2131317;27;20505;-41
2022/11/10 01:58:55;;;;;;;52.00;29.50;;;;;;;;;;2133443;27;20050;-41
2022/11/10 01:59:56;;;;;;;50.15;29.80;;;;;;;;;;2140332;27;20038;-41
2022/11/10 02:00:57;;;;;;;41.97;25.27;;;;;;;;;;2139958;27;20038;-41
2022/11/10 02:02:02;;;;;;;47.70;27.20;;;;;;;;;;2140168;27;20118;-42
2022/11/10 02:03:06;;;;;;;48.78;27.73;;;;;;;;;;2140038;27;20046;-42
2022/11/10 02:04:10;;;;;;;44.88;26.95;;;;;;;;;;2140025;27;20074;-46
2022/11/10 02:05:11;;;;;;;44.90;27.00;;;;;;;;;;2139915;27;20121;-46
2022/11/10 02:06:13;;;;;;;46.63;27.25;;;;;;;;;;2139866;27;20509;-45
2022/11/10 02:07:14;;;;;;;46.08;27.17;;;;;;;;;;2140031;27;20048;-46
2022/11/10 02:08:16;;;;;;;45.90;26.55;;;;;;;;;;2140082;27;20042;-44
2022/11/10 02:09:18;;;;;;;45.70;27.40;;;;;;;;;;2140050;27;20046;-46
2022/11/10 02:10:19;;;;;;;44.47;26.08;;;;;;;;;;2140312;27;20094;-42
2022/11/10 02:11:21;;;;;;;49.47;28.02;;;;;;;;;;2140129;27;20047;-42
2022/11/10 02:12:35;;;;;;;;;;;;;;;;;;2140587;27;20050;-42
2022/11/10 02:13:36;;;;;;;41.13;25.38;;;;;;;;;;2139977;27;20362;-42
2022/11/10 02:14:37;;;;;;;48.75;27.60;;;;;;;;;;2139958;27;20050;-41
2022/11/10 02:15:39;;;;;;;45.37;25.03;;;;;;;;;;2140104;27;20506;-42
2022/11/10 02:16:40;;;;;;;40.30;23.10;;;;;;;;;;2139849;27;20289;-41
2022/11/10 02:17:42;;;;;;;50.00;28.17;;;;;;;;;;2139916;27;20398;-42
2022/11/10 02:18:43;;;;;;;;;;;;;;;;;;2140371;27;20091;-41
2022/11/10 02:19:44;;;;;;;48.58;28.65;;;;;;;;;;2139890;27;19923;-41
2022/11/10 02:20:46;;;;;;;50.70;28.52;;;;;;;;;;2139820;27;20053;-41
2022/11/10 02:21:47;;;;;;;47.13;27.77;;;;;;;;;;2140034;27;20042;-41
2022/11/10 02:22:48;;;;;;;46.80;27.75;;;;;;;;;;2139956;27;20053;-42
2022/11/10 02:23:50;;;;;;;45.60;25.90;;;;;;;;;;2140071;27;20101;-41
2022/11/10 02:24:50;;;;;;;42.25;25.70;;;;;;;;;;2139990;27;20046;-41
2022/11/10 02:25:52;;;;;;;44.60;26.55;;;;;;;;;;2131170;27;20055;-43
2022/11/10 02:26:54;;;;;;;43.42;26.70;;;;;;;;;;2131100;27;20547;-41
2022/11/10 02:27:55;;;;;;;45.55;27.00;;;;;;;;;;2131153;27;20042;-41
2022/11/10 02:28:56;;;;;;;46.45;28.48;;;;;;;;;;2131336;27;20053;-42
2022/11/10 02:29:57;;;;;;;46.47;26.43;;;;;;;;;;2131277;27;20078;-42
2022/11/10 02:30:58;;;;;;;47.45;28.27;;;;;;;;;;2131205;27;20613;-41
2022/11/10 02:32:00;;;;;;;49.08;27.90;;;;;;;;;;2131320;27;20129;-41
2022/11/10 02:33:02;;;;;;;51.45;26.67;;;;;;;;;;2131280;27;20043;-42
2022/11/10 02:34:03;;;;;;;49.58;27.17;;;;;;;;;;2131305;27;20046;-41
2022/11/10 02:35:04;;;;;;;49.03;27.05;;;;;;;;;;2131201;27;20087;-42
2022/11/10 02:36:07;;;;;;;46.53;26.65;;;;;;;;;;2131065;27;20117;-41
2022/11/10 02:37:09;;;;;;;51.95;28.48;;;;;;;;;;2131473;27;20046;-42
2022/11/10 02:38:10;;;;;;;47.42;28.55;;;;;;;;;;2132945;27;20051;-41
2022/11/10 02:39:11;;;;;;;48.83;28.02;;;;;;;;;;2132637;27;20479;-48
2022/11/10 02:40:12;;;;;;;56.37;28.93;;;;;;;;;;2132623;27;20050;-42
2022/11/10 02:41:13;;;;;;;51.33;28.60;;;;;;;;;;2132665;27;20075;-41
2022/11/10 02:42:14;;;;;;;49.72;27.75;;;;;;;;;;2132666;27;20058;-41
2022/11/10 02:43:16;;;;;;;51.97;28.75;;;;;;;;;;2132688;27;20479;-42
2022/11/10 02:44:17;;;;;;;51.08;28.30;;;;;;;;;;2132995;27;20046;-45
2022/11/10 02:45:18;;;;;;;53.65;30.10;;;;;;;;;;2132623;27;20091;-45
2022/11/10 02:46:19;;;;;;;47.63;28.23;;;;;;;;;;2133139;27;20123;-46
2022/11/10 02:47:20;;;;;;;50.10;27.88;;;;;;;;;;2132837;27;20054;-41
2022/11/10 02:48:21;;;;;;;49.50;28.85;;;;;;;;;;2132571;27;20133;-42
2022/11/10 02:49:22;;;;;;;52.08;29.38;;;;;;;;;;2132631;27;20388;-42
2022/11/10 02:50:23;;;;;;;52.63;28.90;;;;;;;;;;2132451;27;20054;-41
2022/11/10 02:51:25;;;;;;;49.67;28.48;;;;;;;;;;2132961;27;20057;-46
2022/11/10 02:52:26;;;;;;;45.13;26.77;;;;;;;;;;2132662;27;20054;-46
2022/11/10 02:53:27;;;;;;;54.35;29.90;;;;;;;;;;2132640;27;20406;-48
2022/11/10 02:54:29;;;;;;;44.03;27.75;;;;;;;;;;2132573;27;20392;-46
2022/11/10 02:55:30;;;;;;;50.97;28.00;;;;;;;;;;2132606;27;20049;-41
2022/11/10 02:56:31;;;;;;;40.45;21.17;;;;;;;;;;2132729;27;20051;-41
2022/11/10 02:57:32;;;;;;;52.92;27.10;;;;;;;;;;2132710;27;20046;-42
2022/11/10 02:58:33;;;;;;;47.30;27.55;;;;;;;;;;2132602;27;20143;-42
2022/11/10 02:59:34;;;;;;;52.88;29.15;;;;;;;;;;2132724;27;20050;-42
2022/11/10 03:00:35;;;;;;;45.90;27.88;;;;;;;;;;2132647;27;20066;-42
2022/11/10 03:01:36;;;;;;;47.65;27.73;;;;;;;;;;2132575;27;20050;-41
2022/11/10 03:02:37;;;;;;;44.90;28.20;;;;;;;;;;2132694;27;20492;-41
2022/11/10 03:03:38;;;;;;;56.72;30.15;;;;;;;;;;2132602;27;20043;-42
2022/11/10 03:04:39;;;;;;;50.78;28.25;;;;;;;;;;2132552;27;20100;-41
2022/11/10 03:05:40;;;;;;;54.65;26.20;;;;;;;;;;2132429;27;20042;-42
2022/11/10 03:06:42;;;;;;;48.70;28.10;;;;;;;;;;2132469;27;20043;-42
2022/11/10 03:07:43;;;;;;;47.88;27.33;;;;;;;;;;2132603;27;20050;-41
2022/11/10 03:08:44;;;;;;;50.03;27.73;;;;;;;;;;2132357;27;20047;-41
2022/11/10 03:09:45;;;;;;;54.97;30.17;;;;;;;;;;2132642;27;20046;-41
2022/11/10 03:10:46;;;;;;;48.23;27.40;;;;;;;;;;2132666;27;20046;-45
2022/11/10 03:11:47;;;;;;;52.33;29.73;;;;;;;;;;2132568;27;20051;-46
2022/11/10 03:12:48;;;;;;;50.55;28.38;;;;;;;;;;2132456;27;20596;-46
2022/11/10 03:13:49;;;;;;;57.28;28.52;;;;;;;;;;2132599;27;20042;-45
2022/11/10 03:15:03;;;;;;;46.95;27.70;;;;;;;;;;2132525;27;20190;-46
2022/11/10 03:16:04;;;;;;;48.78;27.45;;;;;;;;;;2132357;27;20518;-47
2022/11/10 03:17:05;;;;;;;51.20;28.00;;;;;;;;;;2132396;27;20376;-47
2022/11/10 03:18:06;;;;;;;44.42;25.40;;;;;;;;;;2132412;27;20047;-46
2022/11/10 03:19:08;;;;;;;52.25;26.17;;;;;;;;;;2132432;27;20052;-46
2022/11/10 03:20:09;;;;;;;51.30;29.33;;;;;;;;;;2132567;27;20046;-45
2022/11/10 03:21:10;;;;;;;47.00;27.80;;;;;;;;;;2132478;27;20099;-46
2022/11/10 03:22:12;;;;;;;46.22;25.92;;;;;;;;;;2132365;27;20043;-46
2022/11/10 03:23:13;;;;;;;48.22;28.23;;;;;;;;;;2132437;27;20054;-46
2022/11/10 03:24:14;;;;;;;52.65;28.85;;;;;;;;;;2132324;27;20039;-45
2022/11/10 03:25:15;;;;;;;54.10;29.20;;;;;;;;;;2132260;27;20099;-45
2022/11/10 03:26:16;;;;;;;47.42;27.85;;;;;;;;;;2132354;27;20486;-46
2022/11/10 03:27:17;;;;;;;49.22;27.98;;;;;;;;;;2132374;27;20042;-46
2022/11/10 03:28:18;;;;;;;52.17;27.70;;;;;;;;;;2132435;27;20070;-46
2022/11/10 03:29:19;;;;;;;50.50;26.77;;;;;;;;;;2132562;27;20043;-47
2022/11/10 03:30:20;;;;;;;49.33;27.48;;;;;;;;;;2132333;27;20057;-45
2022/11/10 03:31:21;;;;;;;46.73;27.03;;;;;;;;;;2132509;27;20047;-47
2022/11/10 03:32:22;;;;;;;48.95;27.85;;;;;;;;;;2132364;27;20643;-46
2022/11/10 03:33:23;;;;;;;54.75;29.27;;;;;;;;;;2132287;27;20051;-47
2022/11/10 03:34:25;;;;;;;50.80;27.88;;;;;;;;;;2132361;27;20084;-46
2022/11/10 03:35:32;;;;;;;47.60;27.88;;;;;;;;;;2132539;27;20046;-45
2022/11/10 03:36:33;;;;;;;48.13;28.13;;;;;;;;;;2132507;27;20046;-46
2022/11/10 03:37:35;;;;;;;52.08;28.38;;;;;;;;;;2132563;27;20505;-45
2022/11/10 03:38:36;;;;;;;48.58;27.88;;;;;;;;;;2132654;27;20046;-46
2022/11/10 03:39:38;;;;;;;44.58;26.80;;;;;;;;;;2132353;27;20063;-45
2022/11/10 03:40:39;;;;;;;;;;;;;;;;;;2132832;27;20494;-47
2022/11/10 03:42:00;;;;;;;46.72;28.60;;;;;;;;;;2132323;27;20052;-46
2022/11/10 03:43:01;;;;;;;41.00;26.02;;;;;;;;;;2132387;27;20046;-46
2022/11/10 03:44:02;;;;;;;48.50;27.77;;;;;;;;;;2132309;27;20051;-47
2022/11/10 03:45:03;;;;;;;45.05;27.00;;;;;;;;;;2132482;27;20043;-45
2022/11/10 03:46:05;;;;;;;49.22;28.40;;;;;;;;;;2132329;27;20288;-48
2022/11/10 03:47:06;;;;;;;46.15;26.25;;;;;;;;;;2132335;27;20050;-44
2022/11/10 03:48:07;;;;;;;50.97;28.17;;;;;;;;;;2139810;27;20053;-41
2022/11/10 03:49:08;;;;;;;55.95;28.52;;;;;;;;;;2140327;27;20038;-46
2022/11/10 03:50:09;;;;;;;51.13;28.35;;;;;;;;;;2140410;27;20053;-44
2022/11/10 03:51:10;;;;;;;47.95;27.85;;;;;;;;;;2140016;27;20102;-41
2022/11/10 03:52:11;;;;;;;55.30;29.38;;;;;;;;;;2140384;27;20451;-41
2022/11/10 03:53:13;;;;;;;48.08;27.35;;;;;;;;;;2140296;27;20065;-41
2022/11/10 03:54:14;;;;;;;53.47;28.35;;;;;;;;;;2140363;27;20050;-44
2022/11/10 03:55:16;;;;;;;51.17;26.90;;;;;;;;;;2140151;27;20410;-41
2022/11/10 03:56:17;;;;;;;;;;;;;;;;;;2141206;27;20046;-44
2022/11/10 03:57:17;;;;;;;49.80;27.15;;;;;;;;;;2140766;27;20001;-41
2022/11/10 03:58:19;;;;;;;50.38;28.17;;;;;;;;;;2140834;27;20500;-42
2022/11/10 03:59:20;;;;;;;51.10;27.73;;;;;;;;;;2140872;27;20046;-45
2022/11/10 04:00:21;;;;;;;49.70;26.00;;;;;;;;;;2140798;27;20069;-41
2022/11/10 04:01:22;;;;;;;47.28;27.45;;;;;;;;;;2140839;27;20048;-41
2022/11/10 04:02:23;;;;;;;49.03;27.45;;;;;;;;;;2140674;27;20550;-41
2022/11/10 04:03:24;;;;;;;48.97;27.98;;;;;;;;;;2140820;27;20061;-41
2022/11/10 04:09:44;;;;;;;46.70;26.83;;;;;;;;;;2140783;27;20050;-44
2022/11/10 04:10:45;;;;;;;47.45;27.20;;;;;;;;;;2140055;27;20383;-42
2022/11/10 04:15:45;;;;;;;52.38;27.45;;;;;;;;;;2140656;27;20046;-42
2022/11/10 04:16:46;;;;;;;50.08;27.85;;;;;;;;;;2140597;27;20395;-41
2022/11/10 04:17:48;;;;;;;44.67;26.77;;;;;;;;;;2140736;27;20071;-41
2022/11/10 04:18:48;;;;;;;57.78;28.20;;;;;;;;;;2140780;27;20283;-44
2022/11/10 04:19:50;;;;;;;48.47;27.93;;;;;;;;;;2140693;27;20391;-42
2022/11/10 04:20:51;;;;;;;45.97;27.05;;;;;;;;;;2140628;27;20598;-45
2022/11/10 04:21:53;;;;;;;47.10;26.98;;;;;;;;;;2140567;27;20042;-44
2022/11/10 04:24:14;;;;;;;56.45;31.15;;;;;;;;;;2140512;27;20038;-41
2022/11/10 04:25:15;;;;;;;;;;;;;;;;;;2140659;27;20045;-41
2022/11/10 04:26:28;;;;;;;74.18;39.20;;;;;;;;;;2140645;27;19926;-42
2022/11/10 04:27:29;;;;;;;67.35;35.50;;;;;;;;;;2140469;27;20252;-45
2022/11/10 04:28:30;;;;;;;73.45;37.58;;;;;;;;;;2140645;27;20129;-44
2022/11/10 04:29:31;;;;;;;57.03;31.42;;;;;;;;;;2140551;27;20475;-44
2022/11/10 04:30:32;;;;;;;58.63;33.22;;;;;;;;;;2140569;27;20053;-42
2022/11/10 04:31:36;;;;;;;68.88;35.80;;;;;;;;;;2140500;27;20478;-41
2022/11/10 04:32:37;;;;;;;63.08;35.85;;;;;;;;;;2140505;27;20042;-42
2022/11/10 04:33:39;;;;;;;61.60;35.20;;;;;;;;;;2140546;27;20506;-45
2022/11/10 04:34:39;;;;;;;;;;;;;;;;;;2141155;27;20046;-41
2022/11/10 04:35:41;;;;;;;58.85;33.28;;;;;;;;;;2140415;27;19992;-41
2022/11/10 04:36:42;;;;;;;;;;;;;;;;;;2140926;27;20495;-44
2022/11/10 04:37:45;;;;;;;68.07;36.92;;;;;;;;;;2140667;27;19954;-44
2022/11/10 04:38:46;;;;;;;65.93;38.08;;;;;;;;;;2140374;27;20038;-44
2022/11/10 04:39:48;;;;;;;64.00;35.15;;;;;;;;;;2140573;27;20042;-43
2022/11/10 04:40:49;;;;;;;51.13;29.23;;;;;;;;;;2140506;27;20096;-42
2022/11/10 04:41:50;;;;;;;57.00;31.13;;;;;;;;;;2140618;27;20046;-44
2022/11/10 04:42:51;;;;;;;55.88;31.83;;;;;;;;;;2140436;27;20053;-42
2022/11/10 04:43:52;;;;;;;50.90;30.80;;;;;;;;;;2140463;27;20065;-44
2022/11/10 04:44:53;;;;;;;52.67;29.13;;;;;;;;;;2140505;27;20054;-42
2022/11/10 04:45:54;;;;;;;49.08;28.50;;;;;;;;;;2140578;27;20049;-44
2022/11/10 04:46:55;;;;;;;48.55;27.67;;;;;;;;;;2140547;27;20049;-42
2022/11/10 04:47:56;;;;;;;52.38;30.60;;;;;;;;;;2135487;27;20042;-44
2022/11/10 04:48:57;;;;;;;53.90;29.98;;;;;;;;;;2131733;27;20092;-45
2022/11/10 04:49:58;;;;;;;47.95;29.05;;;;;;;;;;2131805;27;20055;-41
2022/11/10 04:51:02;;;;;;;55.10;31.55;;;;;;;;;;2131867;27;20054;-43
2022/11/10 04:52:03;;;;;;;53.05;30.30;;;;;;;;;;2131669;27;20049;-42
2022/11/10 04:53:04;;;;;;;53.27;28.27;;;;;;;;;;2131866;27;20039;-41
2022/11/10 04:54:05;;;;;;;48.53;26.95;;;;;;;;;;2131748;27;20282;-41
2022/11/10 04:55:08;;;;;;;47.50;28.77;;;;;;;;;;2131816;27;20091;-41
2022/11/10 04:56:10;;;;;;;53.10;30.65;;;;;;;;;;2131559;27;20099;-42
2022/11/10 04:57:11;;;;;;;55.17;30.90;;;;;;;;;;2131733;27;20050;-44
2022/11/10 04:58:13;;;;;;;51.95;28.60;;;;;;;;;;2131725;27;20050;-41
2022/11/10 04:59:14;;;;;;;56.60;32.72;;;;;;;;;;2131685;27;20043;-42
2022/11/10 05:00:15;;;;;;;50.80;28.90;;;;;;;;;;2130723;27;20043;-41
2022/11/10 05:01:18;;;;;;;47.17;29.02;;;;;;;;;;2131615;27;20057;-41
2022/11/10 05:02:19;;;;;;;49.95;29.25;;;;;;;;;;2131823;27;20043;-44
2022/11/10 05:03:20;;;;;;;47.37;29.37;;;;;;;;;;2131643;27;20103;-44
2022/11/10 05:04:21;;;;;;;49.05;29.27;;;;;;;;;;2131842;27;20058;-42
2022/11/10 05:05:22;;;;;;;54.00;30.55;;;;;;;;;;2131619;27;20050;-44
2022/11/10 05:06:24;;;;;;;53.00;30.67;;;;;;;;;;2131816;27;20054;-45
2022/11/10 05:07:25;;;;;;;52.03;30.58;;;;;;;;;;2131586;27;20091;-44
2022/11/10 05:08:26;;;;;;;51.70;30.10;;;;;;;;;;2131822;27;20047;-43
2022/11/10 05:09:27;;;;;;;50.72;31.98;;;;;;;;;;2131734;27;20119;-42
2022/11/10 05:10:29;;;;;;;47.73;30.40;;;;;;;;;;2131948;27;20042;-44
2022/11/10 05:11:30;;;;;;;52.25;29.30;;;;;;;;;;2131783;27;20042;-44
2022/11/10 05:12:31;;;;;;;49.83;29.58;;;;;;;;;;2131522;27;20506;-41
2022/11/10 05:13:32;;;;;;;51.63;32.45;;;;;;;;;;2131661;27;20053;-44
2022/11/10 05:14:33;;;;;;;53.03;30.50;;;;;;;;;;2131681;27;20052;-44
2022/11/10 05:15:34;;;;;;;47.92;28.52;;;;;;;;;;2131588;27;20069;-44
2022/11/10 05:16:36;;;;;;;48.22;27.85;;;;;;;;;;2131652;27;20054;-43
2022/11/10 05:17:38;;;;;;;49.13;27.17;;;;;;;;;;2131732;27;20042;-42
2022/11/10 05:18:39;;;;;;;47.20;26.75;;;;;;;;;;2131622;27;20061;-41
2022/11/10 05:19:40;;;;;;;51.92;28.05;;;;;;;;;;2131553;27;20053;-42
2022/11/10 05:20:41;;;;;;;47.40;27.70;;;;;;;;;;2131403;27;20046;-45
2022/11/10 05:21:42;;;;;;;51.30;27.83;;;;;;;;;;2131649;27;20118;-44
2022/11/10 05:22:44;;;;;;;52.80;27.83;;;;;;;;;;2131695;27;20054;-42
2022/11/10 05:23:49;;;;;;;50.03;27.60;;;;;;;;;;2131703;27;20058;-45
2022/11/10 05:24:50;;;;;;;50.47;27.87;;;;;;;;;;2131590;27;20089;-41
2022/11/10 05:25:52;;;;;;;51.72;27.23;;;;;;;;;;2131305;27;20053;-44
2022/11/10 05:26:53;;;;;;;48.33;26.80;;;;;;;;;;2131450;27;20053;-41
2022/11/10 05:27:54;;;;;;;47.03;27.85;;;;;;;;;;2131483;27;20087;-44
2022/11/10 05:28:55;;;;;;;47.75;27.33;;;;;;;;;;2131691;27;20456;-41
2022/11/10 05:29:56;;;;;;;46.03;27.67;;;;;;;;;;2131569;27;20047;-41
2022/11/10 05:30:57;;;;;;;48.78;27.13;;;;;;;;;;2131590;27;20482;-44
2022/11/10 05:31:58;;;;;;;48.30;26.70;;;;;;;;;;2131397;27;20395;-42
2022/11/10 05:32:59;;;;;;;46.60;25.67;;;;;;;;;;2131503;27;20046;-45
2022/11/10 05:34:00;;;;;;;47.17;26.67;;;;;;;;;;2131572;27;20406;-44
2022/11/10 05:35:01;;;;;;;52.53;28.38;;;;;;;;;;2131506;27;20049;-42
2022/11/10 05:36:03;;;;;;;59.30;29.00;;;;;;;;;;2131548;27;20054;-45
2022/11/10 05:37:04;;;;;;;46.25;26.55;;;;;;;;;;2131467;27;20049;-45
2022/11/10 05:38:05;;;;;;;45.05;26.30;;;;;;;;;;2131546;27;20140;-41
2022/11/10 05:39:06;;;;;;;45.22;24.90;;;;;;;;;;2131504;27;20042;-44
2022/11/10 05:40:07;;;;;;;41.20;24.80;;;;;;;;;;2131621;27;20046;-44
2022/11/10 05:41:09;;;;;;;44.70;26.52;;;;;;;;;;2131539;27;21026;-41
2022/11/10 05:42:10;;;;;;;43.40;24.83;;;;;;;;;;2131455;27;20073;-43
2022/11/10 05:43:12;;;;;;;47.60;26.35;;;;;;;;;;2131505;27;20049;-42
2022/11/10 05:44:13;;;;;;;45.92;25.63;;;;;;;;;;2131523;27;20047;-41
2022/11/10 05:45:14;;;;;;;44.92;26.23;;;;;;;;;;2131536;27;20046;-42
2022/11/10 05:46:15;;;;;;;46.35;26.17;;;;;;;;;;2131401;27;20042;-41
2022/11/10 05:47:16;;;;;;;45.83;26.93;;;;;;;;;;2131200;27;20046;-42
2022/11/10 05:48:17;;;;;;;47.95;25.98;;;;;;;;;;2131357;27;20054;-42
2022/11/10 05:49:18;;;;;;;45.60;26.20;;;;;;;;;;2131539;27;20107;-42
2022/11/10 05:50:20;;;;;;;44.72;25.67;;;;;;;;;;2131494;27;20043;-45
2022/11/10 05:51:22;;;;;;;41.35;24.23;;;;;;;;;;2131478;27;20050;-42
2022/11/10 05:52:23;;;;;;;45.90;25.42;;;;;;;;;;2131461;27;20046;-42
2022/11/10 05:53:24;;;;;;;44.25;24.58;;;;;;;;;;2131495;27;20495;-44
2022/11/10 05:54:25;;;;;;;42.78;24.55;;;;;;;;;;2131537;27;20051;-42
2022/11/10 05:55:27;;;;;;;48.63;25.00;;;;;;;;;;2131335;27;20042;-44
2022/11/10 05:56:28;;;;;;;36.90;23.85;;;;;;;;;;2136687;27;20463;-42
2022/11/10 05:57:29;;;;;;;41.80;24.50;;;;;;;;;;2139990;27;20102;-42
2022/11/10 05:58:31;;;;;;;47.75;25.27;;;;;;;;;;2140049;27;20550;-46
2022/11/10 05:59:32;;;;;;;48.03;26.05;;;;;;;;;;2139866;27;20038;-41
2022/11/10 06:00:33;;;;;;;42.38;24.38;;;;;;;;;;2137519;27;20509;-45
2022/11/10 06:01:34;;;;;;;41.42;24.63;;;;;;;;;;2134246;27;20058;-45
2022/11/10 06:02:35;;;;;;;48.07;25.43;;;;;;;;;;2139943;27;20482;-45
2022/11/10 06:03:36;;;;;;;51.25;25.83;;;;;;;;;;2132006;27;20061;-45
2022/11/10 06:04:37;;;;;;;43.25;25.58;;;;;;;;;;2131520;27;20050;-46
2022/11/10 06:05:38;;;;;;;46.17;25.63;;;;;;;;;;2131245;27;20078;-44
2022/11/10 06:06:39;;;;;;;44.90;25.15;;;;;;;;;;2131669;27;20043;-46
2022/11/10 06:07:40;;;;;;;43.13;24.70;;;;;;;;;;2131306;27;20483;-44
2022/11/10 06:08:41;;;;;;;47.83;26.27;;;;;;;;;;2131344;27;20050;-45
2022/11/10 06:09:42;;;;;;;42.97;25.83;;;;;;;;;;2131518;27;20055;-46
2022/11/10 06:10:44;;;;;;;38.53;24.90;;;;;;;;;;2131439;27;20039;-45
2022/11/10 06:11:45;;;;;;;47.95;26.42;;;;;;;;;;2131131;27;20050;-44
2022/11/10 06:12:46;;;;;;;45.63;24.52;;;;;;;;;;2131538;27;20510;-42
2022/11/10 06:13:48;;;;;;;46.92;26.02;;;;;;;;;;2131451;27;20047;-42